sensor_id;sensor_type;location;lat;lon;timestamp;P1;durP1;ratioP1;P2;durP2;ratioP2
50976;SDS011;36992;48.200;12.418;2023-08-21T00:00:47;3.72;;;2.92;;
50976;SDS011;36992;48.200;12.418;2023-08-21T00:03:14;3.35;;;2.30;;
50976;SDS011;36992;48.200;12.418;2023-08-21T00:05:40;4.43;;;2.80;;
50976;SDS011;36992;48.200;12.418;2023-08-21T00:08:07;3.72;;;2.47;;
50976;SDS011;36992;48.200;12.418;2023-08-21T00:10:37;3.63;;;2.72;;
50976;SDS011;36992;48.200;12.418;2023-08-21T00:13:04;3.88;;;2.67;;
50976;SDS011;36992;48.200;12.418;2023-08-21T00:15:31;3.70;;;2.42;;
50976;SDS011;36992;48.200;12.418;2023-08-21T00:17:57;3.78;;;2.45;;
50976;SDS011;36992;48.200;12.418;2023-08-21T00:20:25;3.95;;;2.95;;
50976;SDS011;36992;48.200;12.418;2023-08-21T00:22:52;3.15;;;2.15;;
50976;SDS011;36992;48.200;12.418;2023-08-21T00:25:18;3.20;;;2.35;;
50976;SDS011;36992;48.200;12.418;2023-08-21T00:27:46;3.95;;;2.63;;
50976;SDS011;36992;48.200;12.418;2023-08-21T00:30:13;3.70;;;2.75;;
50976;SDS011;36992;48.200;12.418;2023-08-21T00:32:40;4.60;;;2.47;;
50976;SDS011;36992;48.200;12.418;2023-08-21T00:35:06;4.05;;;2.65;;
50976;SDS011;36992;48.200;12.418;2023-08-21T00:37:33;4.38;;;2.72;;
50976;SDS011;36992;48.200;12.418;2023-08-21T00:39:59;4.03;;;2.30;;
50976;SDS011;36992;48.200;12.418;2023-08-21T00:42:26;3.67;;;2.63;;
50976;SDS011;36992;48.200;12.418;2023-08-21T00:44:55;5.70;;;2.83;;
50976;SDS011;36992;48.200;12.418;2023-08-21T00:47:21;3.75;;;2.75;;
50976;SDS011;36992;48.200;12.418;2023-08-21T00:49:48;3.17;;;2.38;;
50976;SDS011;36992;48.200;12.418;2023-08-21T00:52:14;4.07;;;2.63;;
50976;SDS011;36992;48.200;12.418;2023-08-21T00:54:42;3.90;;;2.63;;
50976;SDS011;36992;48.200;12.418;2023-08-21T00:57:09;4.13;;;2.55;;
50976;SDS011;36992;48.200;12.418;2023-08-21T00:59:36;3.53;;;2.53;;
50976;SDS011;36992;48.200;12.418;2023-08-21T01:02:05;3.78;;;2.72;;
50976;SDS011;36992;48.200;12.418;2023-08-21T01:04:31;5.18;;;2.78;;
50976;SDS011;36992;48.200;12.418;2023-08-21T01:06:58;3.50;;;2.40;;
50976;SDS011;36992;48.200;12.418;2023-08-21T01:09:25;3.25;;;2.15;;
50976;SDS011;36992;48.200;12.418;2023-08-21T01:11:58;3.60;;;2.17;;
50976;SDS011;36992;48.200;12.418;2023-08-21T01:14:36;3.53;;;2.65;;
50976;SDS011;36992;48.200;12.418;2023-08-21T01:17:10;5.15;;;2.80;;
50976;SDS011;36992;48.200;12.418;2023-08-21T01:19:40;3.97;;;2.83;;
50976;SDS011;36992;48.200;12.418;2023-08-21T01:22:08;4.38;;;2.40;;
50976;SDS011;36992;48.200;12.418;2023-08-21T01:24:36;3.60;;;2.33;;
50976;SDS011;36992;48.200;12.418;2023-08-21T01:27:02;4.93;;;2.20;;
50976;SDS011;36992;48.200;12.418;2023-08-21T01:29:29;4.30;;;2.10;;
50976;SDS011;36992;48.200;12.418;2023-08-21T01:31:58;3.67;;;2.55;;
50976;SDS011;36992;48.200;12.418;2023-08-21T01:34:32;3.95;;;2.30;;
50976;SDS011;36992;48.200;12.418;2023-08-21T01:37:00;4.20;;;2.53;;
50976;SDS011;36992;48.200;12.418;2023-08-21T01:39:27;3.40;;;2.20;;
50976;SDS011;36992;48.200;12.418;2023-08-21T01:41:56;3.22;;;2.42;;
50976;SDS011;36992;48.200;12.418;2023-08-21T01:44:23;3.80;;;2.75;;
50976;SDS011;36992;48.200;12.418;2023-08-21T01:46:51;2.60;;;1.73;;
50976;SDS011;36992;48.200;12.418;2023-08-21T01:49:18;4.00;;;2.72;;
50976;SDS011;36992;48.200;12.418;2023-08-21T01:51:44;4.53;;;2.70;;
50976;SDS011;36992;48.200;12.418;2023-08-21T01:54:11;4.85;;;3.50;;
50976;SDS011;36992;48.200;12.418;2023-08-21T01:56:38;4.25;;;3.15;;
50976;SDS011;36992;48.200;12.418;2023-08-21T01:59:06;4.38;;;3.10;;
50976;SDS011;36992;48.200;12.418;2023-08-21T02:01:32;4.70;;;3.05;;
50976;SDS011;36992;48.200;12.418;2023-08-21T02:03:59;3.95;;;2.13;;
50976;SDS011;36992;48.200;12.418;2023-08-21T02:06:25;3.35;;;2.63;;
50976;SDS011;36992;48.200;12.418;2023-08-21T02:08:52;4.47;;;2.33;;
50976;SDS011;36992;48.200;12.418;2023-08-21T02:11:18;3.67;;;2.70;;
50976;SDS011;36992;48.200;12.418;2023-08-21T02:13:45;3.90;;;2.10;;
50976;SDS011;36992;48.200;12.418;2023-08-21T02:16:13;3.15;;;2.05;;
50976;SDS011;36992;48.200;12.418;2023-08-21T02:18:40;4.50;;;2.75;;
50976;SDS011;36992;48.200;12.418;2023-08-21T02:21:06;5.15;;;2.47;;
50976;SDS011;36992;48.200;12.418;2023-08-21T02:23:33;3.45;;;2.50;;
50976;SDS011;36992;48.200;12.418;2023-08-21T02:25:59;3.08;;;1.88;;
50976;SDS011;36992;48.200;12.418;2023-08-21T02:28:26;2.72;;;2.10;;
50976;SDS011;36992;48.200;12.418;2023-08-21T02:30:52;3.22;;;2.25;;
50976;SDS011;36992;48.200;12.418;2023-08-21T02:33:20;2.63;;;1.98;;
50976;SDS011;36992;48.200;12.418;2023-08-21T02:35:47;3.50;;;2.20;;
50976;SDS011;36992;48.200;12.418;2023-08-21T02:38:13;3.80;;;2.55;;
50976;SDS011;36992;48.200;12.418;2023-08-21T02:40:40;3.67;;;2.55;;
50976;SDS011;36992;48.200;12.418;2023-08-21T02:43:06;2.75;;;1.90;;
50976;SDS011;36992;48.200;12.418;2023-08-21T02:45:33;2.88;;;2.30;;
50976;SDS011;36992;48.200;12.418;2023-08-21T02:47:59;3.40;;;2.00;;
50976;SDS011;36992;48.200;12.418;2023-08-21T02:50:27;2.88;;;2.03;;
50976;SDS011;36992;48.200;12.418;2023-08-21T02:52:54;3.75;;;2.45;;
50976;SDS011;36992;48.200;12.418;2023-08-21T02:55:21;6.10;;;2.65;;
50976;SDS011;36992;48.200;12.418;2023-08-21T02:57:48;2.90;;;2.10;;
50976;SDS011;36992;48.200;12.418;2023-08-21T03:00:14;3.97;;;2.10;;
50976;SDS011;36992;48.200;12.418;2023-08-21T03:02:41;4.25;;;2.20;;
50976;SDS011;36992;48.200;12.418;2023-08-21T03:05:08;2.92;;;1.98;;
50976;SDS011;36992;48.200;12.418;2023-08-21T03:07:36;3.67;;;2.35;;
50976;SDS011;36992;48.200;12.418;2023-08-21T03:10:04;2.60;;;2.08;;
50976;SDS011;36992;48.200;12.418;2023-08-21T03:12:31;3.58;;;2.30;;
50976;SDS011;36992;48.200;12.418;2023-08-21T03:14:57;2.70;;;1.70;;
50976;SDS011;36992;48.200;12.418;2023-08-21T03:17:24;3.22;;;2.42;;
50976;SDS011;36992;48.200;12.418;2023-08-21T03:19:51;2.85;;;1.88;;
50976;SDS011;36992;48.200;12.418;2023-08-21T03:22:17;3.08;;;1.92;;
50976;SDS011;36992;48.200;12.418;2023-08-21T03:24:45;2.85;;;2.03;;
50976;SDS011;36992;48.200;12.418;2023-08-21T03:27:13;2.58;;;1.85;;
50976;SDS011;36992;48.200;12.418;2023-08-21T03:29:41;2.95;;;2.10;;
50976;SDS011;36992;48.200;12.418;2023-08-21T03:32:13;2.88;;;2.22;;
50976;SDS011;36992;48.200;12.418;2023-08-21T03:34:40;3.33;;;2.25;;
50976;SDS011;36992;48.200;12.418;2023-08-21T03:37:06;2.63;;;1.92;;
50976;SDS011;36992;48.200;12.418;2023-08-21T03:39:33;3.35;;;2.15;;
50976;SDS011;36992;48.200;12.418;2023-08-21T03:42:01;3.30;;;2.05;;
50976;SDS011;36992;48.200;12.418;2023-08-21T03:44:27;3.92;;;1.98;;
50976;SDS011;36992;48.200;12.418;2023-08-21T03:46:54;2.97;;;2.08;;
50976;SDS011;36992;48.200;12.418;2023-08-21T03:49:20;2.60;;;2.17;;
50976;SDS011;36992;48.200;12.418;2023-08-21T03:51:47;3.58;;;2.45;;
50976;SDS011;36992;48.200;12.418;2023-08-21T03:54:13;2.83;;;1.90;;
50976;SDS011;36992;48.200;12.418;2023-08-21T03:56:40;7.07;;;2.30;;
50976;SDS011;36992;48.200;12.418;2023-08-21T03:59:08;3.22;;;2.33;;
50976;SDS011;36992;48.200;12.418;2023-08-21T04:01:34;4.35;;;1.90;;
50976;SDS011;36992;48.200;12.418;2023-08-21T04:04:01;2.70;;;1.95;;
50976;SDS011;36992;48.200;12.418;2023-08-21T04:06:27;3.00;;;2.08;;
50976;SDS011;36992;48.200;12.418;2023-08-21T04:08:54;3.05;;;2.15;;
50976;SDS011;36992;48.200;12.418;2023-08-21T04:11:20;3.88;;;2.17;;
50976;SDS011;36992;48.200;12.418;2023-08-21T04:13:47;5.55;;;2.53;;
50976;SDS011;36992;48.200;12.418;2023-08-21T04:16:15;2.38;;;1.77;;
50976;SDS011;36992;48.200;12.418;2023-08-21T04:18:42;2.45;;;1.90;;
50976;SDS011;36992;48.200;12.418;2023-08-21T04:21:09;3.25;;;2.15;;
50976;SDS011;36992;48.200;12.418;2023-08-21T04:23:36;3.55;;;2.17;;
50976;SDS011;36992;48.200;12.418;2023-08-21T04:26:03;2.85;;;1.95;;
50976;SDS011;36992;48.200;12.418;2023-08-21T04:28:30;3.67;;;2.60;;
50976;SDS011;36992;48.200;12.418;2023-08-21T04:30:57;6.20;;;2.30;;
50976;SDS011;36992;48.200;12.418;2023-08-21T04:33:25;4.63;;;2.22;;
50976;SDS011;36992;48.200;12.418;2023-08-21T04:35:53;3.05;;;2.13;;
50976;SDS011;36992;48.200;12.418;2023-08-21T04:38:20;3.47;;;2.35;;
50976;SDS011;36992;48.200;12.418;2023-08-21T04:40:46;3.35;;;2.28;;
50976;SDS011;36992;48.200;12.418;2023-08-21T04:43:13;3.40;;;2.13;;
50976;SDS011;36992;48.200;12.418;2023-08-21T04:45:45;4.82;;;2.20;;
50976;SDS011;36992;48.200;12.418;2023-08-21T04:48:13;3.38;;;2.17;;
50976;SDS011;36992;48.200;12.418;2023-08-21T04:50:41;3.10;;;2.30;;
50976;SDS011;36992;48.200;12.418;2023-08-21T04:53:07;4.07;;;2.08;;
50976;SDS011;36992;48.200;12.418;2023-08-21T04:55:34;3.25;;;2.50;;
50976;SDS011;36992;48.200;12.418;2023-08-21T04:58:01;4.15;;;2.65;;
50976;SDS011;36992;48.200;12.418;2023-08-21T05:00:28;3.33;;;2.13;;
50976;SDS011;36992;48.200;12.418;2023-08-21T05:02:55;3.33;;;2.15;;
50976;SDS011;36992;48.200;12.418;2023-08-21T05:05:21;4.00;;;2.50;;
50976;SDS011;36992;48.200;12.418;2023-08-21T05:07:49;4.82;;;2.65;;
50976;SDS011;36992;48.200;12.418;2023-08-21T05:10:16;7.30;;;3.00;;
50976;SDS011;36992;48.200;12.418;2023-08-21T05:12:42;3.50;;;2.50;;
50976;SDS011;36992;48.200;12.418;2023-08-21T05:15:09;2.95;;;2.05;;
50976;SDS011;36992;48.200;12.418;2023-08-21T05:17:36;3.08;;;2.10;;
50976;SDS011;36992;48.200;12.418;2023-08-21T05:20:02;3.53;;;2.08;;
50976;SDS011;36992;48.200;12.418;2023-08-21T05:22:29;4.63;;;2.40;;
50976;SDS011;36992;48.200;12.418;2023-08-21T05:24:57;4.32;;;2.72;;
50976;SDS011;36992;48.200;12.418;2023-08-21T05:27:24;5.47;;;2.63;;
50976;SDS011;36992;48.200;12.418;2023-08-21T05:29:50;4.50;;;2.65;;
50976;SDS011;36992;48.200;12.418;2023-08-21T05:32:17;3.15;;;2.38;;
50976;SDS011;36992;48.200;12.418;2023-08-21T05:34:43;3.13;;;2.45;;
50976;SDS011;36992;48.200;12.418;2023-08-21T05:37:10;4.32;;;3.08;;
50976;SDS011;36992;48.200;12.418;2023-08-21T05:39:37;3.60;;;2.50;;
50976;SDS011;36992;48.200;12.418;2023-08-21T05:42:05;3.63;;;2.60;;
50976;SDS011;36992;48.200;12.418;2023-08-21T05:44:32;3.80;;;2.65;;
50976;SDS011;36992;48.200;12.418;2023-08-21T05:46:58;3.80;;;2.58;;
50976;SDS011;36992;48.200;12.418;2023-08-21T05:49:25;3.25;;;2.30;;
50976;SDS011;36992;48.200;12.418;2023-08-21T05:51:51;3.78;;;2.38;;
50976;SDS011;36992;48.200;12.418;2023-08-21T05:54:18;2.88;;;1.80;;
50976;SDS011;36992;48.200;12.418;2023-08-21T05:56:45;3.03;;;2.17;;
50976;SDS011;36992;48.200;12.418;2023-08-21T05:59:13;3.38;;;2.13;;
50976;SDS011;36992;48.200;12.418;2023-08-21T06:01:52;4.78;;;2.00;;
50976;SDS011;36992;48.200;12.418;2023-08-21T06:04:19;3.65;;;2.38;;
50976;SDS011;36992;48.200;12.418;2023-08-21T06:06:45;3.08;;;2.28;;
50976;SDS011;36992;48.200;12.418;2023-08-21T06:09:12;3.17;;;2.38;;
50976;SDS011;36992;48.200;12.418;2023-08-21T06:11:38;3.45;;;2.47;;
50976;SDS011;36992;48.200;12.418;2023-08-21T06:14:05;3.08;;;1.90;;
50976;SDS011;36992;48.200;12.418;2023-08-21T06:16:33;3.33;;;1.90;;
50976;SDS011;36992;48.200;12.418;2023-08-21T06:18:59;5.38;;;2.75;;
50976;SDS011;36992;48.200;12.418;2023-08-21T06:21:26;3.03;;;2.10;;
50976;SDS011;36992;48.200;12.418;2023-08-21T06:23:52;4.22;;;1.70;;
50976;SDS011;36992;48.200;12.418;2023-08-21T06:26:19;3.95;;;2.15;;
50976;SDS011;36992;48.200;12.418;2023-08-21T06:28:45;2.78;;;1.75;;
50976;SDS011;36992;48.200;12.418;2023-08-21T06:31:12;4.55;;;2.38;;
50976;SDS011;36992;48.200;12.418;2023-08-21T06:33:40;3.22;;;2.00;;
50976;SDS011;36992;48.200;12.418;2023-08-21T06:36:06;3.10;;;2.10;;
50976;SDS011;36992;48.200;12.418;2023-08-21T06:38:33;4.95;;;2.83;;
50976;SDS011;36992;48.200;12.418;2023-08-21T06:40:59;2.45;;;1.83;;
50976;SDS011;36992;48.200;12.418;2023-08-21T06:43:26;5.55;;;2.30;;
50976;SDS011;36992;48.200;12.418;2023-08-21T06:45:52;2.97;;;2.15;;
50976;SDS011;36992;48.200;12.418;2023-08-21T06:48:19;4.10;;;2.28;;
50976;SDS011;36992;48.200;12.418;2023-08-21T06:50:46;3.17;;;2.40;;
50976;SDS011;36992;48.200;12.418;2023-08-21T06:53:13;6.82;;;2.22;;
50976;SDS011;36992;48.200;12.418;2023-08-21T06:55:40;5.45;;;2.15;;
50976;SDS011;36992;48.200;12.418;2023-08-21T06:58:06;3.95;;;2.80;;
50976;SDS011;36992;48.200;12.418;2023-08-21T07:00:33;5.47;;;2.22;;
50976;SDS011;36992;48.200;12.418;2023-08-21T07:02:59;20.30;;;3.58;;
50976;SDS011;36992;48.200;12.418;2023-08-21T07:05:26;8.57;;;3.45;;
50976;SDS011;36992;48.200;12.418;2023-08-21T07:07:54;4.85;;;1.75;;
50976;SDS011;36992;48.200;12.418;2023-08-21T07:10:21;3.17;;;1.80;;
50976;SDS011;36992;48.200;12.418;2023-08-21T07:12:47;4.30;;;1.67;;
50976;SDS011;36992;48.200;12.418;2023-08-21T07:15:14;6.40;;;2.95;;
50976;SDS011;36992;48.200;12.418;2023-08-21T07:17:40;7.45;;;3.13;;
50976;SDS011;36992;48.200;12.418;2023-08-21T07:20:07;3.58;;;1.70;;
50976;SDS011;36992;48.200;12.418;2023-08-21T07:22:34;3.20;;;2.08;;
50976;SDS011;36992;48.200;12.418;2023-08-21T07:25:02;3.53;;;1.73;;
50976;SDS011;36992;48.200;12.418;2023-08-21T07:27:29;2.35;;;1.40;;
50976;SDS011;36992;48.200;12.418;2023-08-21T07:29:56;4.95;;;2.08;;
50976;SDS011;36992;48.200;12.418;2023-08-21T07:32:22;4.45;;;2.33;;
50976;SDS011;36992;48.200;12.418;2023-08-21T07:34:51;4.40;;;2.33;;
50976;SDS011;36992;48.200;12.418;2023-08-21T07:37:18;3.85;;;2.78;;
50976;SDS011;36992;48.200;12.418;2023-08-21T07:39:45;6.55;;;2.05;;
50976;SDS011;36992;48.200;12.418;2023-08-21T07:42:13;5.00;;;1.98;;
50976;SDS011;36992;48.200;12.418;2023-08-21T07:44:39;3.47;;;2.08;;
50976;SDS011;36992;48.200;12.418;2023-08-21T07:47:06;3.95;;;1.83;;
50976;SDS011;36992;48.200;12.418;2023-08-21T07:49:32;5.97;;;2.13;;
50976;SDS011;36992;48.200;12.418;2023-08-21T07:51:59;3.65;;;2.08;;
50976;SDS011;36992;48.200;12.418;2023-08-21T07:54:25;4.97;;;2.05;;
50976;SDS011;36992;48.200;12.418;2023-08-21T07:56:52;8.07;;;1.88;;
50976;SDS011;36992;48.200;12.418;2023-08-21T07:59:20;2.67;;;1.75;;
50976;SDS011;36992;48.200;12.418;2023-08-21T08:01:47;4.20;;;1.95;;
50976;SDS011;36992;48.200;12.418;2023-08-21T08:04:13;3.80;;;2.08;;
50976;SDS011;36992;48.200;12.418;2023-08-21T08:06:40;3.08;;;1.73;;
50976;SDS011;36992;48.200;12.418;2023-08-21T08:09:07;4.72;;;1.80;;
50976;SDS011;36992;48.200;12.418;2023-08-21T08:11:33;3.42;;;2.03;;
50976;SDS011;36992;48.200;12.418;2023-08-21T08:14:00;3.67;;;1.83;;
50976;SDS011;36992;48.200;12.418;2023-08-21T08:16:28;4.18;;;1.90;;
50976;SDS011;36992;48.200;12.418;2023-08-21T08:18:54;5.13;;;2.00;;
50976;SDS011;36992;48.200;12.418;2023-08-21T08:21:21;2.60;;;1.80;;
50976;SDS011;36992;48.200;12.418;2023-08-21T08:23:47;3.28;;;1.65;;
50976;SDS011;36992;48.200;12.418;2023-08-21T08:26:14;3.67;;;1.70;;
50976;SDS011;36992;48.200;12.418;2023-08-21T08:28:41;3.30;;;1.77;;
50976;SDS011;36992;48.200;12.418;2023-08-21T08:31:13;2.92;;;1.80;;
50976;SDS011;36992;48.200;12.418;2023-08-21T08:33:42;3.60;;;1.67;;
50976;SDS011;36992;48.200;12.418;2023-08-21T08:36:08;4.78;;;1.40;;
50976;SDS011;36992;48.200;12.418;2023-08-21T08:38:35;3.40;;;1.25;;
50976;SDS011;36992;48.200;12.418;2023-08-21T08:41:02;3.17;;;1.60;;
50976;SDS011;36992;48.200;12.418;2023-08-21T08:43:33;3.35;;;2.05;;
50976;SDS011;36992;48.200;12.418;2023-08-21T08:46:03;2.40;;;1.42;;
50976;SDS011;36992;48.200;12.418;2023-08-21T08:48:30;5.63;;;2.08;;
50976;SDS011;36992;48.200;12.418;2023-08-21T08:50:59;5.07;;;1.95;;
50976;SDS011;36992;48.200;12.418;2023-08-21T08:53:25;4.15;;;1.98;;
50976;SDS011;36992;48.200;12.418;2023-08-21T08:55:53;5.18;;;1.50;;
50976;SDS011;36992;48.200;12.418;2023-08-21T08:58:20;5.80;;;2.30;;
50976;SDS011;36992;48.200;12.418;2023-08-21T09:00:46;3.22;;;1.58;;
50976;SDS011;36992;48.200;12.418;2023-08-21T09:03:13;3.92;;;1.83;;
50976;SDS011;36992;48.200;12.418;2023-08-21T09:05:40;3.60;;;1.67;;
50976;SDS011;36992;48.200;12.418;2023-08-21T09:08:11;4.70;;;1.75;;
50976;SDS011;36992;48.200;12.418;2023-08-21T09:10:39;3.17;;;1.58;;
50976;SDS011;36992;48.200;12.418;2023-08-21T09:13:11;4.68;;;1.40;;
50976;SDS011;36992;48.200;12.418;2023-08-21T09:15:40;6.07;;;2.67;;
50976;SDS011;36992;48.200;12.418;2023-08-21T09:18:09;5.30;;;1.92;;
50976;SDS011;36992;48.200;12.418;2023-08-21T09:20:36;16.20;;;3.10;;
50976;SDS011;36992;48.200;12.418;2023-08-21T09:23:03;4.93;;;2.28;;
50976;SDS011;36992;48.200;12.418;2023-08-21T09:25:34;3.28;;;1.52;;
50976;SDS011;36992;48.200;12.418;2023-08-21T09:28:04;3.67;;;1.88;;
50976;SDS011;36992;48.200;12.418;2023-08-21T09:30:43;4.90;;;1.70;;
50976;SDS011;36992;48.200;12.418;2023-08-21T09:33:11;3.20;;;1.77;;
50976;SDS011;36992;48.200;12.418;2023-08-21T09:35:37;3.03;;;1.30;;
50976;SDS011;36992;48.200;12.418;2023-08-21T09:38:07;4.35;;;1.95;;
50976;SDS011;36992;48.200;12.418;2023-08-21T09:40:35;3.13;;;1.60;;
50976;SDS011;36992;48.200;12.418;2023-08-21T09:43:06;5.95;;;2.17;;
50976;SDS011;36992;48.200;12.418;2023-08-21T09:45:34;3.75;;;2.05;;
50976;SDS011;36992;48.200;12.418;2023-08-21T09:48:00;3.50;;;1.77;;
50976;SDS011;36992;48.200;12.418;2023-08-21T09:50:28;3.50;;;1.98;;
50976;SDS011;36992;48.200;12.418;2023-08-21T09:52:55;3.17;;;1.65;;
50976;SDS011;36992;48.200;12.418;2023-08-21T09:55:22;5.15;;;1.50;;
50976;SDS011;36992;48.200;12.418;2023-08-21T09:57:52;2.80;;;1.65;;
50976;SDS011;36992;48.200;12.418;2023-08-21T10:00:23;2.88;;;1.77;;
50976;SDS011;36992;48.200;12.418;2023-08-21T10:02:50;3.95;;;2.00;;
50976;SDS011;36992;48.200;12.418;2023-08-21T10:05:17;3.53;;;2.25;;
50976;SDS011;36992;48.200;12.418;2023-08-21T10:07:44;6.68;;;2.22;;
50976;SDS011;36992;48.200;12.418;2023-08-21T10:10:13;3.28;;;1.63;;
50976;SDS011;36992;48.200;12.418;2023-08-21T10:12:40;2.50;;;1.45;;
50976;SDS011;36992;48.200;12.418;2023-08-21T10:15:08;4.47;;;1.88;;
50976;SDS011;36992;48.200;12.418;2023-08-21T10:17:35;4.15;;;1.95;;
50976;SDS011;36992;48.200;12.418;2023-08-21T10:20:03;3.53;;;1.70;;
50976;SDS011;36992;48.200;12.418;2023-08-21T10:22:38;5.70;;;1.63;;
50976;SDS011;36992;48.200;12.418;2023-08-21T10:27:40;6.70;;;1.48;;
50976;SDS011;36992;48.200;12.418;2023-08-21T10:30:12;5.30;;;2.50;;
50976;SDS011;36992;48.200;12.418;2023-08-21T10:32:44;3.17;;;1.42;;
50976;SDS011;36992;48.200;12.418;2023-08-21T10:35:13;8.48;;;1.88;;
50976;SDS011;36992;48.200;12.418;2023-08-21T10:40:32;3.33;;;2.08;;
50976;SDS011;36992;48.200;12.418;2023-08-21T10:42:59;3.97;;;1.33;;
50976;SDS011;36992;48.200;12.418;2023-08-21T10:45:28;3.30;;;1.50;;
50976;SDS011;36992;48.200;12.418;2023-08-21T10:47:56;5.70;;;2.08;;
50976;SDS011;36992;48.200;12.418;2023-08-21T10:50:23;3.22;;;2.17;;
50976;SDS011;36992;48.200;12.418;2023-08-21T10:52:51;3.88;;;1.70;;
50976;SDS011;36992;48.200;12.418;2023-08-21T10:55:18;3.45;;;1.88;;
50976;SDS011;36992;48.200;12.418;2023-08-21T10:57:45;3.13;;;1.60;;
50976;SDS011;36992;48.200;12.418;2023-08-21T11:00:13;3.13;;;2.05;;
50976;SDS011;36992;48.200;12.418;2023-08-21T11:02:43;3.40;;;1.90;;
50976;SDS011;36992;48.200;12.418;2023-08-21T11:05:12;3.55;;;1.80;;
50976;SDS011;36992;48.200;12.418;2023-08-21T11:07:40;2.75;;;1.92;;
50976;SDS011;36992;48.200;12.418;2023-08-21T11:10:10;3.72;;;2.72;;
50976;SDS011;36992;48.200;12.418;2023-08-21T11:12:38;4.20;;;2.38;;
50976;SDS011;36992;48.200;12.418;2023-08-21T11:15:13;3.08;;;2.15;;
50976;SDS011;36992;48.200;12.418;2023-08-21T11:17:43;3.95;;;1.73;;
50976;SDS011;36992;48.200;12.418;2023-08-21T11:20:17;4.03;;;1.88;;
50976;SDS011;36992;48.200;12.418;2023-08-21T11:22:43;2.75;;;1.80;;
50976;SDS011;36992;48.200;12.418;2023-08-21T11:25:10;3.42;;;1.85;;
50976;SDS011;36992;48.200;12.418;2023-08-21T11:27:37;3.65;;;2.15;;
50976;SDS011;36992;48.200;12.418;2023-08-21T11:30:05;11.23;;;2.88;;
50976;SDS011;36992;48.200;12.418;2023-08-21T11:32:32;3.50;;;1.60;;
50976;SDS011;36992;48.200;12.418;2023-08-21T11:35:00;4.72;;;2.10;;
50976;SDS011;36992;48.200;12.418;2023-08-21T11:37:27;3.63;;;1.45;;
50976;SDS011;36992;48.200;12.418;2023-08-21T11:39:54;5.60;;;2.38;;
50976;SDS011;36992;48.200;12.418;2023-08-21T11:42:22;5.28;;;2.38;;
50976;SDS011;36992;48.200;12.418;2023-08-21T11:44:54;3.55;;;1.80;;
50976;SDS011;36992;48.200;12.418;2023-08-21T11:47:22;2.28;;;1.30;;
50976;SDS011;36992;48.200;12.418;2023-08-21T11:49:50;2.45;;;2.00;;
50976;SDS011;36992;48.200;12.418;2023-08-21T11:52:19;5.30;;;1.85;;
50976;SDS011;36992;48.200;12.418;2023-08-21T11:54:47;3.78;;;1.70;;
50976;SDS011;36992;48.200;12.418;2023-08-21T11:57:15;6.13;;;2.33;;
50976;SDS011;36992;48.200;12.418;2023-08-21T11:59:41;3.15;;;1.85;;
50976;SDS011;36992;48.200;12.418;2023-08-21T12:02:13;3.03;;;2.15;;
50976;SDS011;36992;48.200;12.418;2023-08-21T12:04:41;5.40;;;2.10;;
50976;SDS011;36992;48.200;12.418;2023-08-21T12:07:08;4.45;;;2.15;;
50976;SDS011;36992;48.200;12.418;2023-08-21T12:09:36;4.07;;;2.00;;
50976;SDS011;36992;48.200;12.418;2023-08-21T12:12:03;4.65;;;2.28;;
50976;SDS011;36992;48.200;12.418;2023-08-21T12:14:30;2.83;;;1.70;;
50976;SDS011;36992;48.200;12.418;2023-08-21T12:16:57;3.58;;;1.98;;
50976;SDS011;36992;48.200;12.418;2023-08-21T12:19:23;2.90;;;1.65;;
50976;SDS011;36992;48.200;12.418;2023-08-21T12:21:50;3.42;;;2.08;;
50976;SDS011;36992;48.200;12.418;2023-08-21T12:24:17;2.22;;;1.40;;
50976;SDS011;36992;48.200;12.418;2023-08-21T12:26:45;4.63;;;1.83;;
50976;SDS011;36992;48.200;12.418;2023-08-21T12:29:12;3.13;;;1.92;;
50976;SDS011;36992;48.200;12.418;2023-08-21T12:31:38;4.25;;;1.55;;
50976;SDS011;36992;48.200;12.418;2023-08-21T12:34:05;4.03;;;1.70;;
50976;SDS011;36992;48.200;12.418;2023-08-21T12:36:33;3.00;;;1.80;;
50976;SDS011;36992;48.200;12.418;2023-08-21T12:39:00;6.47;;;2.20;;
50976;SDS011;36992;48.200;12.418;2023-08-21T12:41:27;3.63;;;1.55;;
50976;SDS011;36992;48.200;12.418;2023-08-21T12:43:55;4.40;;;1.20;;
50976;SDS011;36992;48.200;12.418;2023-08-21T12:46:22;2.20;;;1.50;;
50976;SDS011;36992;48.200;12.418;2023-08-21T12:48:48;5.60;;;1.70;;
50976;SDS011;36992;48.200;12.418;2023-08-21T12:51:15;3.25;;;1.73;;
50976;SDS011;36992;48.200;12.418;2023-08-21T12:53:42;4.90;;;1.25;;
50976;SDS011;36992;48.200;12.418;2023-08-21T12:56:08;1.77;;;1.05;;
50976;SDS011;36992;48.200;12.418;2023-08-21T12:58:35;3.67;;;1.02;;
50976;SDS011;36992;48.200;12.418;2023-08-21T13:01:03;1.55;;;0.90;;
50976;SDS011;36992;48.200;12.418;2023-08-21T13:03:30;2.08;;;1.13;;
50976;SDS011;36992;48.200;12.418;2023-08-21T13:05:57;1.02;;;0.65;;
50976;SDS011;36992;48.200;12.418;2023-08-21T13:08:23;2.28;;;0.75;;
50976;SDS011;36992;48.200;12.418;2023-08-21T13:10:50;2.22;;;0.70;;
50976;SDS011;36992;48.200;12.418;2023-08-21T13:13:16;1.75;;;0.75;;
50976;SDS011;36992;48.200;12.418;2023-08-21T13:15:43;1.30;;;0.75;;
50976;SDS011;36992;48.200;12.418;2023-08-21T13:18:13;8.90;;;1.85;;
50976;SDS011;36992;48.200;12.418;2023-08-21T13:20:39;3.17;;;0.70;;
50976;SDS011;36992;48.200;12.418;2023-08-21T13:23:06;1.38;;;0.55;;
50976;SDS011;36992;48.200;12.418;2023-08-21T13:25:33;1.05;;;0.55;;
50976;SDS011;36992;48.200;12.418;2023-08-21T13:28:00;1.50;;;0.77;;
50976;SDS011;36992;48.200;12.418;2023-08-21T13:30:28;1.95;;;0.77;;
50976;SDS011;36992;48.200;12.418;2023-08-21T13:32:55;1.80;;;0.80;;
50976;SDS011;36992;48.200;12.418;2023-08-21T13:35:23;1.10;;;0.60;;
50976;SDS011;36992;48.200;12.418;2023-08-21T13:37:49;4.43;;;1.02;;
50976;SDS011;36992;48.200;12.418;2023-08-21T13:40:16;1.95;;;0.88;;
50976;SDS011;36992;48.200;12.418;2023-08-21T13:42:44;2.10;;;1.17;;
50976;SDS011;36992;48.200;12.418;2023-08-21T13:45:12;4.80;;;1.02;;
50976;SDS011;36992;48.200;12.418;2023-08-21T13:47:39;4.78;;;1.23;;
50976;SDS011;36992;48.200;12.418;2023-08-21T13:50:06;5.30;;;0.90;;
50976;SDS011;36992;48.200;12.418;2023-08-21T13:52:35;3.58;;;1.13;;
50976;SDS011;36992;48.200;12.418;2023-08-21T13:55:04;2.33;;;1.10;;
50976;SDS011;36992;48.200;12.418;2023-08-21T13:57:47;2.67;;;1.05;;
50976;SDS011;36992;48.200;12.418;2023-08-21T14:00:22;5.38;;;1.15;;
50976;SDS011;36992;48.200;12.418;2023-08-21T14:02:50;2.90;;;0.70;;
50976;SDS011;36992;48.200;12.418;2023-08-21T14:05:20;1.67;;;1.05;;
50976;SDS011;36992;48.200;12.418;2023-08-21T14:07:48;2.75;;;1.27;;
50976;SDS011;36992;48.200;12.418;2023-08-21T14:10:15;3.00;;;1.17;;
50976;SDS011;36992;48.200;12.418;2023-08-21T14:12:41;2.30;;;1.05;;
50976;SDS011;36992;48.200;12.418;2023-08-21T14:15:08;2.60;;;1.25;;
50976;SDS011;36992;48.200;12.418;2023-08-21T14:17:35;2.40;;;1.60;;
50976;SDS011;36992;48.200;12.418;2023-08-21T14:20:02;5.95;;;1.42;;
50976;SDS011;36992;48.200;12.418;2023-08-21T14:22:29;2.08;;;0.98;;
50976;SDS011;36992;48.200;12.418;2023-08-21T14:24:58;3.03;;;1.00;;
50976;SDS011;36992;48.200;12.418;2023-08-21T14:27:24;3.70;;;1.27;;
50976;SDS011;36992;48.200;12.418;2023-08-21T14:29:51;7.18;;;1.58;;
50976;SDS011;36992;48.200;12.418;2023-08-21T14:32:17;4.25;;;1.33;;
50976;SDS011;36992;48.200;12.418;2023-08-21T14:34:44;2.83;;;1.25;;
50976;SDS011;36992;48.200;12.418;2023-08-21T14:37:12;5.13;;;1.55;;
50976;SDS011;36992;48.200;12.418;2023-08-21T14:39:40;3.03;;;1.48;;